createdAt,value
2023-02-06T00:01:33.963Z,-7.64
2023-02-06T00:04:01.360Z,-7.66
2023-02-06T00:06:28.707Z,-7.64
2023-02-06T00:08:55.772Z,-7.60
2023-02-06T00:11:23.304Z,-7.55
2023-02-06T00:13:50.811Z,-7.50
2023-02-06T00:16:17.788Z,-7.48
2023-02-06T00:18:45.460Z,-7.48
2023-02-06T00:21:13.180Z,-7.51
2023-02-06T00:23:40.116Z,-7.53
2023-02-06T00:26:08.405Z,-7.55
2023-02-06T00:28:35.865Z,-7.58
2023-02-06T00:31:05.864Z,-7.60
2023-02-06T00:33:33.445Z,-7.64
2023-02-06T00:36:00.853Z,-7.68
2023-02-06T00:38:29.217Z,-7.71
2023-02-06T00:40:56.867Z,-7.78
2023-02-06T00:43:24.221Z,-7.84
2023-02-06T00:45:52.395Z,-7.92
2023-02-06T00:48:19.353Z,-7.96
2023-02-06T00:50:49.362Z,-7.91
2023-02-06T00:53:16.832Z,-7.82
2023-02-06T00:55:43.781Z,-7.73
2023-02-06T00:58:11.043Z,-7.67
2023-02-06T01:00:40.864Z,-7.57
2023-02-06T01:03:07.904Z,-7.52
2023-02-06T01:05:35.980Z,-7.54
2023-02-06T01:08:04.530Z,-7.65
2023-02-06T01:10:32.305Z,-7.79
2023-02-06T01:13:00.627Z,-7.91
2023-02-06T01:15:27.888Z,-7.99
2023-02-06T01:17:54.825Z,-7.98
2023-02-06T01:20:24.962Z,-7.90
2023-02-06T01:22:52.003Z,-7.81
2023-02-06T01:25:19.353Z,-7.71
2023-02-06T01:27:47.591Z,-7.61
2023-02-06T01:30:15.133Z,-7.51
2023-02-06T01:32:43.193Z,-7.42
2023-02-06T01:35:11.572Z,-7.34
2023-02-06T01:37:39.953Z,-7.27
2023-02-06T01:40:11.749Z,-7.24
2023-02-06T01:42:39.473Z,-7.21
2023-02-06T01:45:26.072Z,-7.20
2023-02-06T01:47:59.262Z,-7.24
2023-02-06T01:50:26.414Z,-7.28
2023-02-06T01:52:53.367Z,-7.33
2023-02-06T01:55:20.426Z,-7.37
2023-02-06T01:57:47.372Z,-7.40
2023-02-06T02:00:15.339Z,-7.45
2023-02-06T02:02:48.463Z,-7.52
2023-02-06T02:05:18.366Z,-7.58
2023-02-06T02:08:10.680Z,-7.60
2023-02-06T02:10:38.451Z,-7.56
2023-02-06T02:13:05.413Z,-7.53
2023-02-06T02:15:43.915Z,-7.48
2023-02-06T02:18:49.141Z,-7.43
2023-02-06T02:21:37.888Z,-7.42
2023-02-06T02:24:23.872Z,-7.41
2023-02-06T02:27:09.957Z,-7.42
2023-02-06T02:29:56.767Z,-7.47
2023-02-06T02:32:45.510Z,-7.53
2023-02-06T02:35:19.726Z,-7.62
2023-02-06T02:38:07.859Z,-7.73
2023-02-06T02:41:03.160Z,-7.87
2023-02-06T02:43:37.703Z,-7.87
2023-02-06T02:46:22.951Z,-7.83
2023-02-06T02:48:53.255Z,-7.77
2023-02-06T02:51:21.045Z,-7.69
2023-02-06T02:53:48.091Z,-7.65
2023-02-06T02:56:22.682Z,-7.61
2023-02-06T02:59:03.276Z,-7.58
2023-02-06T03:01:42.926Z,-7.55
2023-02-06T03:04:18.368Z,-7.53
2023-02-06T03:07:08.745Z,-7.51
2023-02-06T03:09:48.900Z,-7.51
2023-02-06T03:12:45.838Z,-7.52
2023-02-06T03:18:19.277Z,-7.57
2023-02-06T03:20:47.959Z,-7.61
2023-02-06T03:23:21.139Z,-7.62
2023-02-06T03:25:53.137Z,-7.58
2023-02-06T03:28:28.748Z,-7.55
2023-02-06T03:30:58.454Z,-7.48
2023-02-06T03:33:33.775Z,-7.43
2023-02-06T03:36:01.258Z,-7.48
2023-02-06T03:38:28.377Z,-7.52
2023-02-06T03:40:59.384Z,-7.58
2023-02-06T03:43:29.752Z,-7.61
2023-02-06T03:46:04.156Z,-7.64
2023-02-06T03:48:38.978Z,-7.70
2023-02-06T03:51:16.308Z,-7.73
2023-02-06T03:53:45.826Z,-7.74
2023-02-06T03:56:45.123Z,-7.77
2023-02-06T03:59:13.018Z,-7.79
2023-02-06T04:01:44.725Z,-7.81
2023-02-06T04:04:15.821Z,-7.77
2023-02-06T04:06:43.414Z,-7.73
2023-02-06T04:09:10.333Z,-7.69
2023-02-06T04:11:37.196Z,-7.62
2023-02-06T04:14:04.042Z,-7.55
2023-02-06T04:16:31.033Z,-7.49
2023-02-06T04:18:58.008Z,-7.48
2023-02-06T04:21:24.838Z,-7.50
2023-02-06T04:23:51.680Z,-7.53
2023-02-06T04:26:18.585Z,-7.55
2023-02-06T04:28:47.132Z,-7.57
2023-02-06T04:31:14.036Z,-7.62
2023-02-06T04:33:41.709Z,-7.67
2023-02-06T04:36:08.828Z,-7.71
2023-02-06T04:38:35.712Z,-7.76
2023-02-06T04:41:07.129Z,-7.77
2023-02-06T04:43:34.383Z,-7.79
2023-02-06T04:46:01.340Z,-7.78
2023-02-06T04:48:28.429Z,-7.77
2023-02-06T04:50:55.516Z,-7.74
2023-02-06T04:53:22.373Z,-7.70
2023-02-06T04:55:49.267Z,-7.71
2023-02-06T04:58:16.118Z,-7.77
2023-02-06T05:00:42.976Z,-7.83
2023-02-06T05:03:09.772Z,-7.87
2023-02-06T05:05:36.773Z,-7.92
2023-02-06T05:08:03.806Z,-7.95
2023-02-06T05:10:30.752Z,-7.98
2023-02-06T05:12:57.541Z,-8.02
2023-02-06T05:15:24.543Z,-8.05
2023-02-06T05:17:51.464Z,-8.09
2023-02-06T05:20:19.271Z,-8.11
2023-02-06T05:22:46.167Z,-8.11
2023-02-06T05:25:13.071Z,-8.06
2023-02-06T05:27:39.886Z,-8.04
2023-02-06T05:30:07.121Z,-8.02
2023-02-06T05:32:33.981Z,-8.04
2023-02-06T05:35:00.791Z,-8.07
2023-02-06T05:37:27.639Z,-8.07
2023-02-06T05:39:54.525Z,-8.07
2023-02-06T05:42:21.375Z,-8.15
2023-02-06T05:44:48.195Z,-8.35
2023-02-06T05:47:15.023Z,-8.48
2023-02-06T05:49:44.169Z,-8.58
2023-02-06T05:52:11.750Z,-8.59
2023-02-06T05:54:38.532Z,-8.52
2023-02-06T05:57:05.447Z,-8.45
2023-02-06T05:59:32.371Z,-8.38
2023-02-06T06:01:59.499Z,-8.30
2023-02-06T06:04:26.480Z,-8.26
2023-02-06T06:06:53.389Z,-8.20
2023-02-06T06:09:20.320Z,-8.11
2023-02-06T06:11:47.955Z,-8.05
2023-02-06T06:14:14.781Z,-8.02
2023-02-06T06:16:42.016Z,-8.02
2023-02-06T06:19:09.488Z,-8.02
2023-02-06T06:21:36.734Z,-8.00
2023-02-06T06:24:03.861Z,-8.01
2023-02-06T06:26:30.974Z,-8.04
2023-02-06T06:28:57.842Z,-8.07
2023-02-06T06:31:25.020Z,-8.06
2023-02-06T06:33:52.853Z,-8.11
2023-02-06T06:36:19.785Z,-8.23
2023-02-06T06:38:46.642Z,-8.30
2023-02-06T06:41:13.610Z,-8.27
2023-02-06T06:43:40.974Z,-8.20
2023-02-06T06:46:08.579Z,-8.10
2023-02-06T06:48:37.319Z,-7.99
2023-02-06T06:51:06.041Z,-7.85
2023-02-06T06:53:33.252Z,-7.72
2023-02-06T06:56:04.770Z,-7.60
2023-02-06T06:58:32.507Z,-7.53
2023-02-06T07:00:59.483Z,-7.47
2023-02-06T07:03:26.819Z,-7.42
2023-02-06T07:05:53.908Z,-7.40
2023-02-06T07:08:21.130Z,-7.41
2023-02-06T07:10:48.863Z,-7.36
2023-02-06T07:13:15.863Z,-7.28
2023-02-06T07:15:43.519Z,-7.17
2023-02-06T07:18:11.847Z,-7.05
2023-02-06T07:20:39.073Z,-6.96
2023-02-06T07:23:06.498Z,-6.89
2023-02-06T07:25:33.542Z,-6.85
2023-02-06T07:28:00.639Z,-6.85
2023-02-06T07:30:27.667Z,-6.84
2023-02-06T07:32:54.589Z,-6.76
2023-02-06T07:35:21.495Z,-6.68
2023-02-06T07:37:50.665Z,-6.57
2023-02-06T07:40:17.626Z,-6.43
2023-02-06T07:42:44.525Z,-6.35
2023-02-06T07:45:34.435Z,-6.33
2023-02-06T07:48:04.465Z,-6.31
2023-02-06T07:50:32.013Z,-6.27
2023-02-06T07:52:59.428Z,-6.19
2023-02-06T07:55:27.860Z,-6.06
2023-02-06T07:57:55.792Z,-5.88
2023-02-06T08:00:25.538Z,-5.68
2023-02-06T08:02:53.048Z,-5.50
2023-02-06T08:05:20.090Z,-5.37
2023-02-06T08:07:47.392Z,-5.25
2023-02-06T08:10:14.330Z,-5.13
2023-02-06T08:12:41.290Z,-5.04
2023-02-06T08:15:08.867Z,-4.98
2023-02-06T08:17:36.388Z,-4.98
2023-02-06T08:20:03.627Z,-4.90
2023-02-06T08:22:30.687Z,-4.68
2023-02-06T08:24:57.543Z,-4.25
2023-02-06T08:27:25.896Z,-3.82
2023-02-06T08:29:53.255Z,-3.29
2023-02-06T08:32:20.397Z,-2.38
2023-02-06T08:34:47.482Z,-1.38
2023-02-06T08:37:15.395Z,-0.41
2023-02-06T08:39:42.380Z,0.49
2023-02-06T08:42:09.304Z,1.35
2023-02-06T08:44:36.390Z,2.24
2023-02-06T08:47:10.039Z,3.07
2023-02-06T08:49:38.590Z,3.75
2023-02-06T08:52:06.047Z,4.24
2023-02-06T08:54:35.288Z,4.59
2023-02-06T08:57:03.405Z,5.00
2023-02-06T08:59:31.266Z,5.61
2023-02-06T09:01:58.640Z,6.04
2023-02-06T09:04:25.691Z,6.41
2023-02-06T09:06:52.656Z,6.74
2023-02-06T09:09:19.833Z,7.03
2023-02-06T09:11:47.114Z,7.40
2023-02-06T09:14:16.282Z,7.78
2023-02-06T09:16:44.365Z,8.30
2023-02-06T09:19:11.422Z,8.85
2023-02-06T09:21:38.599Z,9.19
2023-02-06T09:24:08.655Z,9.52
2023-02-06T09:26:40.561Z,9.94
2023-02-06T09:29:12.430Z,10.32
2023-02-06T09:31:42.685Z,10.74
2023-02-06T09:34:13.001Z,11.38
2023-02-06T09:36:40.840Z,11.84
2023-02-06T09:39:09.750Z,12.23
2023-02-06T09:41:44.814Z,12.67
2023-02-06T09:44:27.393Z,13.11
2023-02-06T09:47:15.140Z,13.18
2023-02-06T09:49:52.275Z,13.58
2023-02-06T09:52:59.542Z,14.12
2023-02-06T09:55:26.490Z,14.22
2023-02-06T09:58:16.442Z,14.34
2023-02-06T10:00:49.546Z,14.50
2023-02-06T10:03:25.708Z,14.68
2023-02-06T10:06:09.235Z,14.92
2023-02-06T10:08:42.401Z,15.22
2023-02-06T10:11:20.475Z,15.41
2023-02-06T10:13:57.447Z,15.72
2023-02-06T10:16:34.941Z,15.91
2023-02-06T10:19:14.733Z,16.07
2023-02-06T10:22:12.900Z,16.28
2023-02-06T10:25:16.230Z,16.63
2023-02-06T10:27:45.853Z,17.23
2023-02-06T10:30:26.197Z,17.67
2023-02-06T10:33:09.728Z,17.67
2023-02-06T10:35:52.099Z,17.71
2023-02-06T10:38:32.693Z,17.82
2023-02-06T10:41:20.093Z,17.70
2023-02-06T10:43:58.041Z,17.61
2023-02-06T10:46:48.567Z,17.58
2023-02-06T10:49:48.109Z,17.69
2023-02-06T10:52:22.077Z,17.66
2023-02-06T10:55:18.293Z,17.48
2023-02-06T10:57:47.985Z,17.44
2023-02-06T11:00:26.476Z,17.76
2023-02-06T11:03:07.283Z,18.12
2023-02-06T11:05:36.309Z,18.30
2023-02-06T11:08:13.993Z,18.59
2023-02-06T11:10:41.128Z,18.82
2023-02-06T11:13:29.817Z,19.01
2023-02-06T11:16:08.749Z,19.33
2023-02-06T11:18:39.905Z,19.57
2023-02-06T11:21:09.824Z,19.55
2023-02-06T11:23:36.865Z,19.54
2023-02-06T11:26:14.765Z,19.48
2023-02-06T11:28:52.761Z,19.73
2023-02-06T11:31:39.631Z,19.71
2023-02-06T11:34:06.865Z,19.51
2023-02-06T11:36:38.737Z,19.09
2023-02-06T11:39:23.836Z,18.95
2023-02-06T11:41:59.843Z,19.21
2023-02-06T11:44:29.432Z,19.53
2023-02-06T11:46:57.412Z,19.46
2023-02-06T11:49:32.001Z,19.42
2023-02-06T11:52:00.965Z,19.66
2023-02-06T11:54:30.547Z,19.87
2023-02-06T11:57:04.484Z,20.16
2023-02-06T11:59:34.728Z,20.33
2023-02-06T12:02:06.642Z,19.89
2023-02-06T12:04:41.721Z,18.75
2023-02-06T12:07:16.979Z,17.38
2023-02-06T12:09:44.116Z,16.07
2023-02-06T12:12:24.012Z,14.92
2023-02-06T12:15:43.684Z,13.36
2023-02-06T12:18:21.961Z,11.73
2023-02-06T12:21:06.700Z,10.72
2023-02-06T12:23:44.216Z,10.06
2023-02-06T12:26:15.014Z,9.25
2023-02-06T12:28:44.680Z,8.49
2023-02-06T12:31:59.435Z,7.82
2023-02-06T12:34:32.833Z,7.14
2023-02-06T12:37:16.325Z,6.75
2023-02-06T12:39:44.028Z,6.37
2023-02-06T12:42:37.206Z,6.12
2023-02-06T12:45:27.724Z,5.96
2023-02-06T12:48:12.148Z,5.82
2023-02-06T12:50:49.527Z,5.61
2023-02-06T12:53:30.645Z,5.42
2023-02-06T12:56:14.558Z,5.29
2023-02-06T12:58:44.684Z,5.15
2023-02-06T13:01:27.979Z,5.02
2023-02-06T13:04:00.582Z,4.79
2023-02-06T13:06:32.746Z,4.58
2023-02-06T13:09:03.028Z,4.31
2023-02-06T13:11:35.848Z,4.06
2023-02-06T13:14:25.820Z,3.90
2023-02-06T13:17:11.972Z,3.78
2023-02-06T13:19:41.922Z,3.67
2023-02-06T13:22:08.697Z,3.64
2023-02-06T13:24:37.411Z,3.47
2023-02-06T13:27:07.214Z,3.31
2023-02-06T13:29:40.157Z,3.22
2023-02-06T13:32:18.638Z,3.20
2023-02-06T13:34:54.821Z,3.19
2023-02-06T13:37:21.784Z,3.12
2023-02-06T13:39:49.688Z,3.04
2023-02-06T13:42:52.245Z,2.94
2023-02-06T13:45:26.615Z,2.85
2023-02-06T13:48:32.086Z,2.84
2023-02-06T13:51:09.528Z,2.76
2023-02-06T13:53:58.551Z,2.69
2023-02-06T13:56:31.661Z,2.66
2023-02-06T13:59:06.188Z,2.63
2023-02-06T14:01:34.152Z,2.55
2023-02-06T14:06:40.479Z,2.44
2023-02-06T14:09:51.011Z,2.36
2023-02-06T14:12:46.014Z,2.29
2023-02-06T14:15:50.790Z,2.24
2023-02-06T14:18:22.221Z,2.19
2023-02-06T14:20:52.930Z,2.10
2023-02-06T14:23:52.499Z,1.99
2023-02-06T14:26:39.124Z,1.88
2023-02-06T14:29:30.924Z,1.81
2023-02-06T14:32:31.042Z,1.86
2023-02-06T14:35:27.444Z,1.87
2023-02-06T14:38:16.305Z,1.87
2023-02-06T14:40:45.304Z,1.90
2023-02-06T14:43:18.307Z,1.91
2023-02-06T14:46:05.399Z,1.91
2023-02-06T14:48:39.747Z,1.81
2023-02-06T14:51:09.210Z,1.67
2023-02-06T14:53:39.030Z,1.55
2023-02-06T14:56:14.264Z,1.49
2023-02-06T14:58:46.537Z,1.40
2023-02-06T15:01:43.005Z,1.35
2023-02-06T15:04:24.753Z,1.31
2023-02-06T15:07:02.122Z,1.27
2023-02-06T15:09:33.370Z,1.19
2023-02-06T15:12:03.305Z,1.12
2023-02-06T15:14:33.809Z,1.05
2023-02-06T15:17:02.945Z,0.95
2023-02-06T15:19:32.690Z,0.84
2023-02-06T15:22:06.510Z,0.74
2023-02-06T15:25:02.678Z,0.68
2023-02-06T15:27:32.406Z,0.60
2023-02-06T15:30:01.700Z,0.48
2023-02-06T15:32:39.260Z,0.33
2023-02-06T15:35:19.139Z,0.16
2023-02-06T15:37:46.256Z,0.00
2023-02-06T15:40:13.849Z,-0.18
2023-02-06T15:42:41.839Z,-0.30
2023-02-06T15:45:18.304Z,-0.41
2023-02-06T15:47:46.386Z,-0.56
2023-02-06T15:50:19.481Z,-0.71
2023-02-06T15:52:47.747Z,-0.88
2023-02-06T15:55:26.726Z,-1.03
2023-02-06T15:57:55.991Z,-1.17
2023-02-06T16:00:33.076Z,-1.28
2023-02-06T16:03:08.084Z,-1.37
2023-02-06T16:05:41.076Z,-1.46
2023-02-06T16:08:17.804Z,-1.55
2023-02-06T16:10:50.526Z,-1.66
2023-02-06T16:13:22.553Z,-1.75
2023-02-06T16:16:08.984Z,-1.79
2023-02-06T16:18:38.806Z,-1.82
2023-02-06T16:21:18.152Z,-1.82
2023-02-06T16:23:46.704Z,-1.82
2023-02-06T16:26:28.570Z,-1.86
2023-02-06T16:29:00.911Z,-1.94
2023-02-06T16:31:31.035Z,-2.06
2023-02-06T16:34:04.814Z,-2.18
2023-02-06T16:36:33.815Z,-2.28
2023-02-06T16:39:04.364Z,-2.35
2023-02-06T16:41:38.468Z,-2.42
2023-02-06T16:44:13.693Z,-2.49
2023-02-06T16:46:41.073Z,-2.60
2023-02-06T16:49:20.128Z,-2.70
2023-02-06T16:51:49.293Z,-2.79
2023-02-06T16:54:23.618Z,-2.84
2023-02-06T16:56:52.209Z,-2.90
2023-02-06T16:59:20.167Z,-2.95
2023-02-06T17:01:47.590Z,-2.99
2023-02-06T17:04:15.344Z,-3.02
2023-02-06T17:06:45.302Z,-3.05
2023-02-06T17:09:15.236Z,-3.10
2023-02-06T17:11:42.386Z,-3.14
2023-02-06T17:14:10.698Z,-3.09
2023-02-06T17:16:37.889Z,-2.32
2023-02-06T17:19:05.081Z,-2.02
2023-02-06T17:21:34.085Z,-2.22
2023-02-06T17:24:01.434Z,-2.43
2023-02-06T17:26:29.104Z,-2.63
2023-02-06T17:28:56.561Z,-2.75
2023-02-06T17:31:23.974Z,-2.65
2023-02-06T17:33:51.397Z,-2.58
2023-02-06T17:36:29.635Z,-2.66
2023-02-06T17:39:00.961Z,-2.75
2023-02-06T17:41:28.421Z,-2.85
2023-02-06T17:43:55.665Z,-2.95
2023-02-06T17:46:23.513Z,-3.05
2023-02-06T17:48:51.108Z,-3.14
2023-02-06T17:51:18.166Z,-3.25
2023-02-06T17:53:45.210Z,-3.35
2023-02-06T17:56:13.403Z,-3.44
2023-02-06T17:58:41.684Z,-3.51
2023-02-06T18:01:14.017Z,-3.56
2023-02-06T18:03:42.349Z,-3.64
2023-02-06T18:06:10.268Z,-3.73
2023-02-06T18:08:37.351Z,-3.84
2023-02-06T18:11:13.956Z,-3.92
2023-02-06T18:13:43.370Z,-3.98
2023-02-06T18:16:15.848Z,-4.02
2023-02-06T18:18:44.237Z,-4.04
2023-02-06T18:21:12.091Z,-4.04
2023-02-06T18:23:40.142Z,-4.07
2023-02-06T18:26:09.665Z,-4.09
2023-02-06T18:28:37.930Z,-4.04
2023-02-06T18:31:05.748Z,-4.10
2023-02-06T18:33:35.627Z,-4.19
2023-02-06T18:36:07.185Z,-4.25
2023-02-06T18:38:34.416Z,-4.31
2023-02-06T18:41:05.786Z,-4.38
2023-02-06T18:43:34.046Z,-4.46
2023-02-06T18:46:07.272Z,-4.51
2023-02-06T18:48:34.802Z,-4.53
2023-02-06T18:51:07.077Z,-4.54
2023-02-06T18:53:34.547Z,-4.56
2023-02-06T18:56:02.105Z,-4.57
2023-02-06T18:58:29.163Z,-4.60
2023-02-06T19:00:56.631Z,-4.63
2023-02-06T19:03:23.880Z,-4.66
2023-02-06T19:05:51.027Z,-4.67
2023-02-06T19:08:18.098Z,-4.68
2023-02-06T19:10:45.658Z,-4.70
2023-02-06T19:13:12.707Z,-4.72
2023-02-06T19:15:39.774Z,-4.75
2023-02-06T19:18:08.273Z,-4.81
2023-02-06T19:20:35.848Z,-4.86
2023-02-06T19:23:03.067Z,-4.87
2023-02-06T19:25:31.140Z,-4.88
2023-02-06T19:27:58.172Z,-4.90
2023-02-06T19:30:25.195Z,-4.92
2023-02-06T19:32:52.593Z,-4.95
2023-02-06T19:35:20.079Z,-5.01
2023-02-06T19:37:47.635Z,-5.05
2023-02-06T19:40:14.690Z,-5.10
2023-02-06T19:42:41.733Z,-5.14
2023-02-06T19:45:12.071Z,-5.18
2023-02-06T19:47:39.229Z,-5.19
2023-02-06T19:50:06.781Z,-5.20
2023-02-06T19:52:35.565Z,-5.22
2023-02-06T19:55:03.086Z,-5.25
2023-02-06T19:57:30.200Z,-5.26
2023-02-06T19:59:57.100Z,-5.28
2023-02-06T20:02:24.098Z,-5.27
2023-02-06T20:04:51.266Z,-5.28
2023-02-06T20:07:18.272Z,-5.32
2023-02-06T20:09:45.472Z,-5.38
2023-02-06T20:12:12.933Z,-5.43
2023-02-06T20:14:40.488Z,-5.47
2023-02-06T20:17:07.608Z,-5.53
2023-02-06T20:19:35.520Z,-5.57
2023-02-06T20:22:03.381Z,-5.59
2023-02-06T20:24:32.419Z,-5.64
2023-02-06T20:27:02.140Z,-5.69
2023-02-06T20:29:32.321Z,-5.75
2023-02-06T20:32:00.366Z,-5.82
2023-02-06T20:34:28.747Z,-5.88
2023-02-06T20:36:56.142Z,-5.92
2023-02-06T20:39:23.798Z,-5.99
2023-02-06T20:41:51.183Z,-6.05
2023-02-06T20:44:20.278Z,-6.09
2023-02-06T20:46:47.749Z,-6.14
2023-02-06T20:49:17.895Z,-6.15
2023-02-06T20:51:45.067Z,-6.12
2023-02-06T20:54:12.752Z,-6.10
2023-02-06T20:56:40.694Z,-6.10
2023-02-06T20:59:09.112Z,-6.11
2023-02-06T21:01:36.444Z,-6.09
2023-02-06T21:04:08.624Z,-6.04
2023-02-06T21:06:37.684Z,-5.99
2023-02-06T21:09:06.199Z,-5.93
2023-02-06T21:11:38.015Z,-5.86
2023-02-06T21:14:07.243Z,-5.77
2023-02-06T21:16:38.044Z,-5.68
2023-02-06T21:19:07.546Z,-5.58
2023-02-06T21:21:35.430Z,-5.53
2023-02-06T21:24:02.473Z,-5.51
2023-02-06T21:26:30.641Z,-5.48
2023-02-06T21:29:00.411Z,-5.43
2023-02-06T21:31:36.940Z,-5.36
2023-02-06T21:34:17.518Z,-5.32
2023-02-06T21:36:45.595Z,-5.29
2023-02-06T21:39:21.356Z,-5.28
2023-02-06T21:41:52.176Z,-5.32
2023-02-06T21:44:23.404Z,-5.37
2023-02-06T21:46:51.622Z,-5.41
2023-02-06T21:49:19.973Z,-5.45
2023-02-06T21:51:46.938Z,-5.52
2023-02-06T21:54:14.203Z,-5.52
2023-02-06T21:56:41.341Z,-5.52
2023-02-06T21:59:10.091Z,-5.53
2023-02-06T22:01:40.937Z,-5.53
2023-02-06T22:04:09.602Z,-5.54
2023-02-06T22:06:37.745Z,-5.56
2023-02-06T22:09:10.820Z,-5.58
2023-02-06T22:11:39.952Z,-5.60
2023-02-06T22:14:15.731Z,-5.56
2023-02-06T22:16:43.463Z,-5.50
2023-02-06T22:19:11.032Z,-5.43
2023-02-06T22:21:38.282Z,-5.34
2023-02-06T22:24:07.391Z,-5.28
2023-02-06T22:26:38.965Z,-5.27
2023-02-06T22:29:10.184Z,-5.23
2023-02-06T22:31:41.057Z,-5.15
2023-02-06T22:34:12.398Z,-5.04
2023-02-06T22:36:39.973Z,-4.96
2023-02-06T22:39:08.719Z,-4.92
2023-02-06T22:41:39.561Z,-4.89
2023-02-06T22:44:07.125Z,-4.83
2023-02-06T22:46:37.365Z,-4.76
2023-02-06T22:49:08.079Z,-4.67
2023-02-06T22:51:35.952Z,-4.60
2023-02-06T22:54:03.602Z,-4.54
2023-02-06T22:56:36.290Z,-4.52
2023-02-06T22:59:12.565Z,-4.50
2023-02-06T23:01:44.148Z,-4.49
2023-02-06T23:04:15.468Z,-4.46
2023-02-06T23:06:43.556Z,-4.40
2023-02-06T23:09:15.300Z,-4.34
2023-02-06T23:11:42.357Z,-4.27
2023-02-06T23:14:12.279Z,-4.23
2023-02-06T23:16:39.740Z,-4.19
2023-02-06T23:19:07.814Z,-4.15
2023-02-06T23:21:39.372Z,-4.15
2023-02-06T23:24:08.513Z,-4.15
2023-02-06T23:26:35.971Z,-4.13
2023-02-06T23:29:05.773Z,-4.12
2023-02-06T23:31:33.475Z,-4.11
2023-02-06T23:34:01.083Z,-4.13
2023-02-06T23:36:28.755Z,-4.12
2023-02-06T23:38:56.002Z,-4.10
2023-02-06T23:41:25.526Z,-4.09
2023-02-06T23:43:55.745Z,-4.06
2023-02-06T23:46:24.006Z,-4.04
2023-02-06T23:48:51.887Z,-4.01
2023-02-06T23:51:20.853Z,-3.98
2023-02-06T23:53:48.763Z,-3.97
2023-02-06T23:56:19.760Z,-3.96
2023-02-06T23:58:47.382Z,-3.94
